sensor_id;sensor_type;location;lat;lon;timestamp;P1;durP1;ratioP1;P2;durP2;ratioP2
75516;SDS011;64097;52.548;13.406;2022-10-31T06:02:44;10.60;;;8.02;;
75516;SDS011;64097;52.548;13.406;2022-10-31T06:05:10;10.10;;;8.18;;
75516;SDS011;64097;52.548;13.406;2022-10-31T06:07:36;10.45;;;8.32;;
75516;SDS011;64097;52.548;13.406;2022-10-31T06:10:03;14.43;;;8.90;;
75516;SDS011;64097;52.548;13.406;2022-10-31T06:12:31;11.50;;;8.43;;
75516;SDS011;64097;52.548;13.406;2022-10-31T06:15:02;9.80;;;8.00;;
75516;SDS011;64097;52.548;13.406;2022-10-31T06:17:29;8.82;;;7.78;;
75516;SDS011;64097;52.548;13.406;2022-10-31T06:19:55;11.10;;;8.15;;
75516;SDS011;64097;52.548;13.406;2022-10-31T06:22:20;9.65;;;7.75;;
75516;SDS011;64097;52.548;13.406;2022-10-31T06:24:46;11.88;;;8.23;;
75516;SDS011;64097;52.548;13.406;2022-10-31T06:27:12;94.57;;;16.83;;
75516;SDS011;64097;52.548;13.406;2022-10-31T06:29:37;270.33;;;33.28;;
75516;SDS011;64097;52.548;13.406;2022-10-31T06:32:03;298.67;;;41.17;;
75516;SDS011;64097;52.548;13.406;2022-10-31T06:34:29;182.68;;;27.73;;
75516;SDS011;64097;52.548;13.406;2022-10-31T06:36:54;71.78;;;15.68;;
75516;SDS011;64097;52.548;13.406;2022-10-31T06:39:20;56.38;;;14.48;;
75516;SDS011;64097;52.548;13.406;2022-10-31T06:41:49;48.83;;;12.25;;
75516;SDS011;64097;52.548;13.406;2022-10-31T06:44:14;33.80;;;11.48;;
75516;SDS011;64097;52.548;13.406;2022-10-31T06:46:40;18.25;;;9.35;;
75516;SDS011;64097;52.548;13.406;2022-10-31T06:49:06;14.63;;;8.98;;
75516;SDS011;64097;52.548;13.406;2022-10-31T06:51:31;11.50;;;8.52;;
75516;SDS011;64097;52.548;13.406;2022-10-31T06:53:57;12.07;;;8.35;;
75516;SDS011;64097;52.548;13.406;2022-10-31T06:56:22;12.35;;;8.52;;
75516;SDS011;64097;52.548;13.406;2022-10-31T06:58:49;12.43;;;9.13;;
75516;SDS011;64097;52.548;13.406;2022-10-31T07:01:14;11.52;;;8.90;;
75516;SDS011;64097;52.548;13.406;2022-10-31T07:03:40;11.68;;;8.60;;
75516;SDS011;64097;52.548;13.406;2022-10-31T07:06:06;10.57;;;8.60;;
75516;SDS011;64097;52.548;13.406;2022-10-31T07:08:31;12.43;;;9.05;;
75516;SDS011;64097;52.548;13.406;2022-10-31T07:10:57;12.68;;;9.68;;
75516;SDS011;64097;52.548;13.406;2022-10-31T07:13:23;14.52;;;9.32;;
75516;SDS011;64097;52.548;13.406;2022-10-31T07:15:53;14.02;;;10.02;;
75516;SDS011;64097;52.548;13.406;2022-10-31T07:18:23;12.20;;;9.38;;
75516;SDS011;64097;52.548;13.406;2022-10-31T07:20:49;10.75;;;8.43;;
75516;SDS011;64097;52.548;13.406;2022-10-31T07:23:16;10.27;;;8.73;;
75516;SDS011;64097;52.548;13.406;2022-10-31T07:25:42;13.02;;;9.07;;
75516;SDS011;64097;52.548;13.406;2022-10-31T07:28:08;11.02;;;9.68;;
75516;SDS011;64097;52.548;13.406;2022-10-31T07:30:34;14.00;;;9.60;;
75516;SDS011;64097;52.548;13.406;2022-10-31T07:33:00;13.85;;;10.27;;
75516;SDS011;64097;52.548;13.406;2022-10-31T07:35:27;13.15;;;10.50;;
75516;SDS011;64097;52.548;13.406;2022-10-31T07:37:54;14.38;;;9.95;;
75516;SDS011;64097;52.548;13.406;2022-10-31T07:40:20;12.80;;;10.82;;
75516;SDS011;64097;52.548;13.406;2022-10-31T07:42:48;15.90;;;9.68;;
75516;SDS011;64097;52.548;13.406;2022-10-31T07:45:15;12.60;;;9.77;;
75516;SDS011;64097;52.548;13.406;2022-10-31T07:47:44;12.15;;;9.55;;
75516;SDS011;64097;52.548;13.406;2022-10-31T07:50:13;14.48;;;11.27;;
75516;SDS011;64097;52.548;13.406;2022-10-31T07:52:44;14.17;;;10.60;;
75516;SDS011;64097;52.548;13.406;2022-10-31T07:55:10;14.45;;;10.75;;
75516;SDS011;64097;52.548;13.406;2022-10-31T07:57:36;15.00;;;11.52;;
75516;SDS011;64097;52.548;13.406;2022-10-31T08:00:03;15.57;;;11.18;;
75516;SDS011;64097;52.548;13.406;2022-10-31T08:02:29;14.80;;;11.55;;
75516;SDS011;64097;52.548;13.406;2022-10-31T08:04:55;14.93;;;10.20;;
75516;SDS011;64097;52.548;13.406;2022-10-31T08:07:21;12.23;;;9.52;;
75516;SDS011;64097;52.548;13.406;2022-10-31T08:09:46;14.60;;;10.45;;
75516;SDS011;64097;52.548;13.406;2022-10-31T08:12:12;13.52;;;9.77;;
75516;SDS011;64097;52.548;13.406;2022-10-31T08:14:38;14.10;;;10.52;;
75516;SDS011;64097;52.548;13.406;2022-10-31T08:17:03;17.52;;;12.48;;
75516;SDS011;64097;52.548;13.406;2022-10-31T08:19:29;15.35;;;10.50;;
75516;SDS011;64097;52.548;13.406;2022-10-31T08:21:54;15.23;;;9.88;;
75516;SDS011;64097;52.548;13.406;2022-10-31T08:24:21;13.18;;;10.50;;
75516;SDS011;64097;52.548;13.406;2022-10-31T08:26:47;12.82;;;10.05;;
75516;SDS011;64097;52.548;13.406;2022-10-31T08:29:12;13.73;;;10.25;;
75516;SDS011;64097;52.548;13.406;2022-10-31T08:31:39;15.00;;;11.23;;
75516;SDS011;64097;52.548;13.406;2022-10-31T08:34:06;17.23;;;11.43;;
75516;SDS011;64097;52.548;13.406;2022-10-31T08:36:32;12.65;;;10.95;;
75516;SDS011;64097;52.548;13.406;2022-10-31T08:38:58;13.95;;;10.57;;
75516;SDS011;64097;52.548;13.406;2022-10-31T08:41:23;13.35;;;10.52;;
75516;SDS011;64097;52.548;13.406;2022-10-31T08:43:49;12.65;;;10.05;;
75516;SDS011;64097;52.548;13.406;2022-10-31T08:46:15;17.05;;;12.38;;
75516;SDS011;64097;52.548;13.406;2022-10-31T08:48:41;16.80;;;11.73;;
75516;SDS011;64097;52.548;13.406;2022-10-31T08:51:06;22.20;;;14.18;;
75516;SDS011;64097;52.548;13.406;2022-10-31T08:53:34;15.43;;;12.40;;
75516;SDS011;64097;52.548;13.406;2022-10-31T08:56:00;13.43;;;11.48;;
75516;SDS011;64097;52.548;13.406;2022-10-31T08:58:26;19.75;;;13.65;;
75516;SDS011;64097;52.548;13.406;2022-10-31T09:00:52;17.63;;;12.38;;
75516;SDS011;64097;52.548;13.406;2022-10-31T09:03:26;18.83;;;13.80;;
75516;SDS011;64097;52.548;13.406;2022-10-31T09:05:58;17.98;;;12.50;;
75516;SDS011;64097;52.548;13.406;2022-10-31T09:08:25;15.40;;;11.90;;
75516;SDS011;64097;52.548;13.406;2022-10-31T09:10:55;16.83;;;13.65;;
75516;SDS011;64097;52.548;13.406;2022-10-31T09:13:23;13.57;;;11.00;;
75516;SDS011;64097;52.548;13.406;2022-10-31T09:15:49;17.25;;;12.77;;
75516;SDS011;64097;52.548;13.406;2022-10-31T09:18:17;16.35;;;12.85;;
75516;SDS011;64097;52.548;13.406;2022-10-31T09:20:47;16.88;;;13.43;;
75516;SDS011;64097;52.548;13.406;2022-10-31T09:23:20;17.33;;;13.75;;
75516;SDS011;64097;52.548;13.406;2022-10-31T09:25:48;15.73;;;12.00;;
75516;SDS011;64097;52.548;13.406;2022-10-31T09:28:16;16.95;;;12.75;;
75516;SDS011;64097;52.548;13.406;2022-10-31T09:30:45;17.77;;;13.07;;
75516;SDS011;64097;52.548;13.406;2022-10-31T09:33:12;15.43;;;12.38;;
75516;SDS011;64097;52.548;13.406;2022-10-31T09:35:38;14.30;;;11.60;;
75516;SDS011;64097;52.548;13.406;2022-10-31T09:38:06;16.05;;;12.82;;
75516;SDS011;64097;52.548;13.406;2022-10-31T09:40:43;17.45;;;13.00;;
75516;SDS011;64097;52.548;13.406;2022-10-31T09:51:55;17.00;;;12.95;;
75516;SDS011;64097;52.548;13.406;2022-10-31T09:57:25;16.08;;;13.00;;
75516;SDS011;64097;52.548;13.406;2022-10-31T09:59:54;20.08;;;15.00;;
75516;SDS011;64097;52.548;13.406;2022-10-31T10:02:27;18.13;;;13.70;;
75516;SDS011;64097;52.548;13.406;2022-10-31T10:05:13;21.33;;;14.95;;
75516;SDS011;64097;52.548;13.406;2022-10-31T10:16:23;19.05;;;14.13;;
75516;SDS011;64097;52.548;13.406;2022-10-31T10:24:45;19.55;;;14.95;;
75516;SDS011;64097;52.548;13.406;2022-10-31T10:32:47;20.92;;;15.68;;
75516;SDS011;64097;52.548;13.406;2022-10-31T10:35:21;22.50;;;16.95;;
75516;SDS011;64097;52.548;13.406;2022-10-31T10:38:11;18.55;;;15.00;;
75516;SDS011;64097;52.548;13.406;2022-10-31T10:40:43;24.65;;;17.77;;
75516;SDS011;64097;52.548;13.406;2022-10-31T10:45:46;15.70;;;13.40;;
75516;SDS011;64097;52.548;13.406;2022-10-31T10:49:11;20.23;;;14.75;;
75516;SDS011;64097;52.548;13.406;2022-10-31T10:59:54;20.40;;;14.73;;
75516;SDS011;64097;52.548;13.406;2022-10-31T11:02:22;17.50;;;14.23;;
75516;SDS011;64097;52.548;13.406;2022-10-31T11:05:11;19.35;;;14.55;;
75516;SDS011;64097;52.548;13.406;2022-10-31T11:07:58;20.52;;;14.07;;
75516;SDS011;64097;52.548;13.406;2022-10-31T11:10:24;23.55;;;17.30;;
75516;SDS011;64097;52.548;13.406;2022-10-31T11:18:34;27.17;;;20.55;;
75516;SDS011;64097;52.548;13.406;2022-10-31T11:21:04;23.38;;;17.00;;
75516;SDS011;64097;52.548;13.406;2022-10-31T11:23:31;25.25;;;18.75;;
75516;SDS011;64097;52.548;13.406;2022-10-31T11:26:01;21.13;;;16.35;;
75516;SDS011;64097;52.548;13.406;2022-10-31T11:28:30;22.45;;;17.48;;
75516;SDS011;64097;52.548;13.406;2022-10-31T11:31:00;24.75;;;18.40;;
75516;SDS011;64097;52.548;13.406;2022-10-31T11:33:47;23.00;;;16.55;;
75516;SDS011;64097;52.548;13.406;2022-10-31T11:38:47;21.45;;;16.45;;
75516;SDS011;64097;52.548;13.406;2022-10-31T11:41:14;25.67;;;17.70;;
75516;SDS011;64097;52.548;13.406;2022-10-31T11:43:53;21.38;;;16.42;;
75516;SDS011;64097;52.548;13.406;2022-10-31T11:49:19;18.17;;;14.98;;
75516;SDS011;64097;52.548;13.406;2022-10-31T11:51:49;21.83;;;16.05;;
75516;SDS011;64097;52.548;13.406;2022-10-31T11:54:44;22.35;;;17.30;;
75516;SDS011;64097;52.548;13.406;2022-10-31T11:59:58;22.85;;;15.82;;
75516;SDS011;64097;52.548;13.406;2022-10-31T12:02:25;23.77;;;17.88;;
75516;SDS011;64097;52.548;13.406;2022-10-31T12:04:55;28.17;;;19.10;;
75516;SDS011;64097;52.548;13.406;2022-10-31T12:07:41;20.08;;;16.13;;
75516;SDS011;64097;52.548;13.406;2022-10-31T12:10:10;28.52;;;19.98;;
75516;SDS011;64097;52.548;13.406;2022-10-31T12:15:33;27.92;;;21.20;;
75516;SDS011;64097;52.548;13.406;2022-10-31T12:28:48;22.23;;;15.88;;
75516;SDS011;64097;52.548;13.406;2022-10-31T12:36:54;25.95;;;19.90;;
75516;SDS011;64097;52.548;13.406;2022-10-31T12:54:16;19.00;;;15.77;;
75516;SDS011;64097;52.548;13.406;2022-10-31T13:05:05;21.73;;;15.88;;
75516;SDS011;64097;52.548;13.406;2022-10-31T13:07:44;22.08;;;17.02;;
75516;SDS011;64097;52.548;13.406;2022-10-31T13:10:21;26.60;;;19.52;;
75516;SDS011;64097;52.548;13.406;2022-10-31T13:12:57;21.85;;;16.63;;
75516;SDS011;64097;52.548;13.406;2022-10-31T13:15:30;19.95;;;14.98;;
75516;SDS011;64097;52.548;13.406;2022-10-31T13:18:06;28.48;;;20.90;;
75516;SDS011;64097;52.548;13.406;2022-10-31T13:20:42;25.23;;;17.95;;
75516;SDS011;64097;52.548;13.406;2022-10-31T13:25:55;18.10;;;14.60;;
75516;SDS011;64097;52.548;13.406;2022-10-31T13:28:26;22.75;;;15.68;;
75516;SDS011;64097;52.548;13.406;2022-10-31T13:31:00;27.95;;;20.40;;
75516;SDS011;64097;52.548;13.406;2022-10-31T13:33:32;22.10;;;16.80;;
75516;SDS011;64097;52.548;13.406;2022-10-31T13:41:56;19.65;;;13.80;;
75516;SDS011;64097;52.548;13.406;2022-10-31T13:44:30;25.55;;;19.10;;
75516;SDS011;64097;52.548;13.406;2022-10-31T13:47:02;19.73;;;14.90;;
75516;SDS011;64097;52.548;13.406;2022-10-31T13:52:12;20.13;;;15.40;;
75516;SDS011;64097;52.548;13.406;2022-10-31T13:54:49;21.58;;;15.77;;
75516;SDS011;64097;52.548;13.406;2022-10-31T14:00:04;20.38;;;15.68;;
